sensor_id;sensor_type;location;lat;lon;timestamp;P1;durP1;ratioP1;P2;durP2;ratioP2
9823;SDS011;4951;50.778;7.196;2023-03-23T00:00:11;2.50;;;1.60;;
9823;SDS011;4951;50.778;7.196;2023-03-23T00:02:43;2.13;;;1.73;;
9823;SDS011;4951;50.778;7.196;2023-03-23T00:05:46;2.20;;;1.60;;
9823;SDS011;4951;50.778;7.196;2023-03-23T00:08:16;3.60;;;1.60;;
9823;SDS011;4951;50.778;7.196;2023-03-23T00:10:43;3.40;;;1.70;;
9823;SDS011;4951;50.778;7.196;2023-03-23T00:13:10;3.03;;;1.70;;
9823;SDS011;4951;50.778;7.196;2023-03-23T00:15:38;2.27;;;1.50;;
9823;SDS011;4951;50.778;7.196;2023-03-23T00:18:06;3.63;;;1.60;;
9823;SDS011;4951;50.778;7.196;2023-03-23T00:20:34;3.10;;;1.70;;
9823;SDS011;4951;50.778;7.196;2023-03-23T00:23:08;3.00;;;1.90;;
9823;SDS011;4951;50.778;7.196;2023-03-23T00:25:35;1.83;;;1.40;;
9823;SDS011;4951;50.778;7.196;2023-03-23T00:28:02;2.20;;;1.50;;
9823;SDS011;4951;50.778;7.196;2023-03-23T00:30:30;2.57;;;1.50;;
9823;SDS011;4951;50.778;7.196;2023-03-23T00:32:58;3.33;;;1.80;;
9823;SDS011;4951;50.778;7.196;2023-03-23T00:35:26;2.30;;;1.57;;
9823;SDS011;4951;50.778;7.196;2023-03-23T00:37:53;3.83;;;1.50;;
9823;SDS011;4951;50.778;7.196;2023-03-23T00:40:22;1.50;;;1.40;;
9823;SDS011;4951;50.778;7.196;2023-03-23T00:42:49;2.03;;;1.43;;
9823;SDS011;4951;50.778;7.196;2023-03-23T00:45:16;3.13;;;1.60;;
9823;SDS011;4951;50.778;7.196;2023-03-23T00:47:44;2.00;;;1.50;;
9823;SDS011;4951;50.778;7.196;2023-03-23T00:50:12;3.10;;;1.70;;
9823;SDS011;4951;50.778;7.196;2023-03-23T00:52:40;2.07;;;1.50;;
9823;SDS011;4951;50.778;7.196;2023-03-23T00:55:07;1.40;;;1.30;;
9823;SDS011;4951;50.778;7.196;2023-03-23T00:57:36;1.80;;;1.50;;
9823;SDS011;4951;50.778;7.196;2023-03-23T01:00:04;1.77;;;1.60;;
9823;SDS011;4951;50.778;7.196;2023-03-23T01:02:36;1.50;;;1.40;;
9823;SDS011;4951;50.778;7.196;2023-03-23T01:05:06;2.00;;;1.50;;
9823;SDS011;4951;50.778;7.196;2023-03-23T01:07:33;2.00;;;1.40;;
9823;SDS011;4951;50.778;7.196;2023-03-23T01:10:00;2.13;;;1.40;;
9823;SDS011;4951;50.778;7.196;2023-03-23T01:12:28;2.67;;;1.70;;
9823;SDS011;4951;50.778;7.196;2023-03-23T01:14:57;1.60;;;1.50;;
9823;SDS011;4951;50.778;7.196;2023-03-23T01:17:24;1.90;;;1.50;;
9823;SDS011;4951;50.778;7.196;2023-03-23T01:19:51;1.80;;;1.40;;
9823;SDS011;4951;50.778;7.196;2023-03-23T01:22:19;2.27;;;1.40;;
9823;SDS011;4951;50.778;7.196;2023-03-23T01:24:46;1.70;;;1.33;;
9823;SDS011;4951;50.778;7.196;2023-03-23T01:27:13;1.97;;;1.53;;
9823;SDS011;4951;50.778;7.196;2023-03-23T01:29:41;2.40;;;1.70;;
9823;SDS011;4951;50.778;7.196;2023-03-23T01:32:10;1.83;;;1.50;;
9823;SDS011;4951;50.778;7.196;2023-03-23T01:34:38;2.30;;;1.47;;
9823;SDS011;4951;50.778;7.196;2023-03-23T01:37:05;2.10;;;1.60;;
9823;SDS011;4951;50.778;7.196;2023-03-23T01:39:33;1.77;;;1.50;;
9823;SDS011;4951;50.778;7.196;2023-03-23T01:42:02;1.50;;;1.40;;
9823;SDS011;4951;50.778;7.196;2023-03-23T01:47:38;3.27;;;1.60;;
9823;SDS011;4951;50.778;7.196;2023-03-23T01:50:19;1.40;;;1.30;;
9823;SDS011;4951;50.778;7.196;2023-03-23T01:52:55;2.80;;;1.63;;
9823;SDS011;4951;50.778;7.196;2023-03-23T01:55:41;1.77;;;1.50;;
9823;SDS011;4951;50.778;7.196;2023-03-23T01:58:15;2.10;;;1.70;;
9823;SDS011;4951;50.778;7.196;2023-03-23T02:00:53;2.73;;;1.67;;
9823;SDS011;4951;50.778;7.196;2023-03-23T02:03:35;1.80;;;1.60;;
9823;SDS011;4951;50.778;7.196;2023-03-23T02:06:04;2.93;;;1.80;;
9823;SDS011;4951;50.778;7.196;2023-03-23T02:08:36;3.57;;;1.80;;
9823;SDS011;4951;50.778;7.196;2023-03-23T02:11:19;3.17;;;1.47;;
9823;SDS011;4951;50.778;7.196;2023-03-23T02:13:54;2.03;;;1.70;;
9823;SDS011;4951;50.778;7.196;2023-03-23T02:16:31;2.10;;;1.40;;
9823;SDS011;4951;50.778;7.196;2023-03-23T02:19:17;2.10;;;1.73;;
9823;SDS011;4951;50.778;7.196;2023-03-23T02:22:18;2.77;;;1.40;;
9823;SDS011;4951;50.778;7.196;2023-03-23T02:25:18;1.90;;;1.60;;
9823;SDS011;4951;50.778;7.196;2023-03-23T02:28:11;1.80;;;1.50;;
9823;SDS011;4951;50.778;7.196;2023-03-23T02:31:08;1.73;;;1.63;;
9823;SDS011;4951;50.778;7.196;2023-03-23T02:34:06;1.70;;;1.40;;
9823;SDS011;4951;50.778;7.196;2023-03-23T02:36:46;1.83;;;1.33;;
9823;SDS011;4951;50.778;7.196;2023-03-23T02:39:29;1.83;;;1.33;;
9823;SDS011;4951;50.778;7.196;2023-03-23T02:42:04;2.47;;;1.60;;
9823;SDS011;4951;50.778;7.196;2023-03-23T02:44:41;1.97;;;1.40;;
9823;SDS011;4951;50.778;7.196;2023-03-23T02:47:26;2.07;;;1.40;;
9823;SDS011;4951;50.778;7.196;2023-03-23T02:50:16;1.87;;;1.50;;
9823;SDS011;4951;50.778;7.196;2023-03-23T02:52:53;4.13;;;1.60;;
9823;SDS011;4951;50.778;7.196;2023-03-23T02:58:46;2.53;;;1.40;;
9823;SDS011;4951;50.778;7.196;2023-03-23T03:04:57;1.60;;;1.50;;
9823;SDS011;4951;50.778;7.196;2023-03-23T03:07:49;2.43;;;1.50;;
9823;SDS011;4951;50.778;7.196;2023-03-23T03:11:13;2.60;;;1.53;;
9823;SDS011;4951;50.778;7.196;2023-03-23T03:13:50;1.70;;;1.60;;
9823;SDS011;4951;50.778;7.196;2023-03-23T03:16:31;1.57;;;1.47;;
9823;SDS011;4951;50.778;7.196;2023-03-23T03:19:52;2.27;;;1.60;;
9823;SDS011;4951;50.778;7.196;2023-03-23T03:22:49;2.37;;;1.53;;
9823;SDS011;4951;50.778;7.196;2023-03-23T03:25:26;2.03;;;1.73;;
9823;SDS011;4951;50.778;7.196;2023-03-23T03:28:02;1.90;;;1.60;;
9823;SDS011;4951;50.778;7.196;2023-03-23T03:30:50;4.03;;;1.80;;
9823;SDS011;4951;50.778;7.196;2023-03-23T03:33:23;2.63;;;1.60;;
9823;SDS011;4951;50.778;7.196;2023-03-23T03:35:59;2.70;;;1.70;;
9823;SDS011;4951;50.778;7.196;2023-03-23T03:38:45;3.23;;;1.67;;
9823;SDS011;4951;50.778;7.196;2023-03-23T03:41:30;2.10;;;1.67;;
9823;SDS011;4951;50.778;7.196;2023-03-23T03:43:59;1.70;;;1.60;;
9823;SDS011;4951;50.778;7.196;2023-03-23T03:46:26;3.37;;;1.70;;
9823;SDS011;4951;50.778;7.196;2023-03-23T03:49:38;2.40;;;1.50;;
9823;SDS011;4951;50.778;7.196;2023-03-23T03:52:14;1.67;;;1.57;;
9823;SDS011;4951;50.778;7.196;2023-03-23T03:54:51;1.70;;;1.60;;
9823;SDS011;4951;50.778;7.196;2023-03-23T03:57:19;2.23;;;1.50;;
9823;SDS011;4951;50.778;7.196;2023-03-23T04:00:17;2.27;;;1.57;;
9823;SDS011;4951;50.778;7.196;2023-03-23T04:02:47;3.43;;;1.70;;
9823;SDS011;4951;50.778;7.196;2023-03-23T04:05:58;1.90;;;1.70;;
9823;SDS011;4951;50.778;7.196;2023-03-23T04:08:27;2.50;;;1.60;;
9823;SDS011;4951;50.778;7.196;2023-03-23T04:11:00;1.87;;;1.60;;
9823;SDS011;4951;50.778;7.196;2023-03-23T04:13:29;1.63;;;1.53;;
9823;SDS011;4951;50.778;7.196;2023-03-23T04:16:09;2.23;;;1.60;;
9823;SDS011;4951;50.778;7.196;2023-03-23T04:18:50;2.07;;;1.70;;
9823;SDS011;4951;50.778;7.196;2023-03-23T04:21:34;1.60;;;1.50;;
9823;SDS011;4951;50.778;7.196;2023-03-23T04:24:24;2.27;;;1.57;;
9823;SDS011;4951;50.778;7.196;2023-03-23T04:26:59;1.70;;;1.60;;
9823;SDS011;4951;50.778;7.196;2023-03-23T04:29:33;2.53;;;1.60;;
9823;SDS011;4951;50.778;7.196;2023-03-23T04:32:33;1.70;;;1.60;;
9823;SDS011;4951;50.778;7.196;2023-03-23T04:35:01;1.90;;;1.70;;
9823;SDS011;4951;50.778;7.196;2023-03-23T04:37:45;2.47;;;1.40;;
9823;SDS011;4951;50.778;7.196;2023-03-23T04:40:17;1.67;;;1.57;;
9823;SDS011;4951;50.778;7.196;2023-03-23T04:43:04;1.73;;;1.50;;
9823;SDS011;4951;50.778;7.196;2023-03-23T04:45:52;3.40;;;1.80;;
9823;SDS011;4951;50.778;7.196;2023-03-23T04:48:33;1.80;;;1.50;;
9823;SDS011;4951;50.778;7.196;2023-03-23T04:51:23;3.10;;;1.50;;
9823;SDS011;4951;50.778;7.196;2023-03-23T04:53:56;1.77;;;1.60;;
9823;SDS011;4951;50.778;7.196;2023-03-23T04:56:39;3.17;;;2.00;;
9823;SDS011;4951;50.778;7.196;2023-03-23T04:59:14;1.80;;;1.70;;
9823;SDS011;4951;50.778;7.196;2023-03-23T05:01:56;1.90;;;1.53;;
9823;SDS011;4951;50.778;7.196;2023-03-23T05:07:26;2.57;;;1.80;;
9823;SDS011;4951;50.778;7.196;2023-03-23T05:10:01;2.40;;;1.90;;
9823;SDS011;4951;50.778;7.196;2023-03-23T05:12:35;2.43;;;1.70;;
9823;SDS011;4951;50.778;7.196;2023-03-23T05:15:12;3.00;;;1.90;;
9823;SDS011;4951;50.778;7.196;2023-03-23T05:17:58;2.03;;;1.50;;
9823;SDS011;4951;50.778;7.196;2023-03-23T05:20:33;2.27;;;2.00;;
9823;SDS011;4951;50.778;7.196;2023-03-23T05:23:08;1.90;;;1.70;;
9823;SDS011;4951;50.778;7.196;2023-03-23T05:25:58;2.73;;;1.70;;
9823;SDS011;4951;50.778;7.196;2023-03-23T05:28:32;2.00;;;1.80;;
9823;SDS011;4951;50.778;7.196;2023-03-23T05:31:09;2.50;;;1.60;;
9823;SDS011;4951;50.778;7.196;2023-03-23T05:33:36;3.17;;;1.73;;
9823;SDS011;4951;50.778;7.196;2023-03-23T05:36:42;1.77;;;1.63;;
9823;SDS011;4951;50.778;7.196;2023-03-23T05:39:39;1.83;;;1.60;;
9823;SDS011;4951;50.778;7.196;2023-03-23T05:42:33;2.30;;;1.80;;
9823;SDS011;4951;50.778;7.196;2023-03-23T05:45:13;1.67;;;1.57;;
9823;SDS011;4951;50.778;7.196;2023-03-23T05:50:46;2.43;;;1.60;;
9823;SDS011;4951;50.778;7.196;2023-03-23T05:53:26;1.53;;;1.43;;
9823;SDS011;4951;50.778;7.196;2023-03-23T05:55:57;5.10;;;1.80;;
9823;SDS011;4951;50.778;7.196;2023-03-23T05:58:47;2.93;;;1.50;;
9823;SDS011;4951;50.778;7.196;2023-03-23T06:01:28;1.70;;;1.60;;
9823;SDS011;4951;50.778;7.196;2023-03-23T06:04:08;1.97;;;1.57;;
9823;SDS011;4951;50.778;7.196;2023-03-23T06:07:10;2.97;;;1.67;;
9823;SDS011;4951;50.778;7.196;2023-03-23T06:10:01;1.90;;;1.50;;
9823;SDS011;4951;50.778;7.196;2023-03-23T06:12:54;2.13;;;1.70;;
9823;SDS011;4951;50.778;7.196;2023-03-23T06:15:45;1.50;;;1.40;;
9823;SDS011;4951;50.778;7.196;2023-03-23T06:18:59;1.80;;;1.60;;
9823;SDS011;4951;50.778;7.196;2023-03-23T06:21:42;3.93;;;1.90;;
9823;SDS011;4951;50.778;7.196;2023-03-23T06:27:53;1.87;;;1.50;;
9823;SDS011;4951;50.778;7.196;2023-03-23T06:30:24;2.43;;;1.77;;
9823;SDS011;4951;50.778;7.196;2023-03-23T06:33:08;1.97;;;1.50;;
9823;SDS011;4951;50.778;7.196;2023-03-23T06:36:34;1.60;;;1.50;;
9823;SDS011;4951;50.778;7.196;2023-03-23T06:39:34;2.70;;;1.50;;
9823;SDS011;4951;50.778;7.196;2023-03-23T06:42:37;1.80;;;1.27;;
9823;SDS011;4951;50.778;7.196;2023-03-23T06:45:54;2.63;;;1.50;;
9823;SDS011;4951;50.778;7.196;2023-03-23T06:52:15;2.87;;;1.53;;
9823;SDS011;4951;50.778;7.196;2023-03-23T06:55:00;3.00;;;1.30;;
9823;SDS011;4951;50.778;7.196;2023-03-23T06:57:31;2.77;;;1.53;;
9823;SDS011;4951;50.778;7.196;2023-03-23T07:00:03;1.87;;;1.57;;
9823;SDS011;4951;50.778;7.196;2023-03-23T07:02:45;2.20;;;1.60;;
9823;SDS011;4951;50.778;7.196;2023-03-23T07:05:13;2.20;;;1.50;;
9823;SDS011;4951;50.778;7.196;2023-03-23T07:07:50;2.30;;;1.37;;
9823;SDS011;4951;50.778;7.196;2023-03-23T07:10:27;3.17;;;1.40;;
9823;SDS011;4951;50.778;7.196;2023-03-23T07:12:55;2.10;;;1.60;;
9823;SDS011;4951;50.778;7.196;2023-03-23T07:15:40;1.50;;;1.33;;
9823;SDS011;4951;50.778;7.196;2023-03-23T07:18:10;2.37;;;1.60;;
9823;SDS011;4951;50.778;7.196;2023-03-23T07:20:42;2.33;;;1.50;;
9823;SDS011;4951;50.778;7.196;2023-03-23T07:23:16;2.53;;;1.73;;
9823;SDS011;4951;50.778;7.196;2023-03-23T07:25:56;1.67;;;1.40;;
9823;SDS011;4951;50.778;7.196;2023-03-23T07:28:29;3.33;;;1.63;;
9823;SDS011;4951;50.778;7.196;2023-03-23T07:31:20;2.53;;;1.43;;
9823;SDS011;4951;50.778;7.196;2023-03-23T07:33:51;1.73;;;1.57;;
9823;SDS011;4951;50.778;7.196;2023-03-23T07:36:45;2.93;;;1.67;;
9823;SDS011;4951;50.778;7.196;2023-03-23T07:39:26;1.73;;;1.40;;
9823;SDS011;4951;50.778;7.196;2023-03-23T07:41:56;1.60;;;1.50;;
9823;SDS011;4951;50.778;7.196;2023-03-23T07:45:15;2.63;;;1.50;;
9823;SDS011;4951;50.778;7.196;2023-03-23T07:47:55;1.77;;;1.47;;
9823;SDS011;4951;50.778;7.196;2023-03-23T07:50:23;2.27;;;1.37;;
9823;SDS011;4951;50.778;7.196;2023-03-23T07:52:56;4.50;;;1.70;;
9823;SDS011;4951;50.778;7.196;2023-03-23T07:55:34;2.83;;;1.60;;
9823;SDS011;4951;50.778;7.196;2023-03-23T07:58:32;1.60;;;1.23;;
9823;SDS011;4951;50.778;7.196;2023-03-23T08:01:00;1.53;;;1.40;;
9823;SDS011;4951;50.778;7.196;2023-03-23T08:03:32;1.90;;;1.60;;
9823;SDS011;4951;50.778;7.196;2023-03-23T08:06:25;1.87;;;1.37;;
9823;SDS011;4951;50.778;7.196;2023-03-23T08:09:22;3.40;;;1.50;;
9823;SDS011;4951;50.778;7.196;2023-03-23T08:12:14;5.13;;;1.60;;
9823;SDS011;4951;50.778;7.196;2023-03-23T08:15:11;2.57;;;1.97;;
9823;SDS011;4951;50.778;7.196;2023-03-23T08:18:04;4.13;;;1.60;;
9823;SDS011;4951;50.778;7.196;2023-03-23T08:20:58;3.63;;;1.80;;
9823;SDS011;4951;50.778;7.196;2023-03-23T08:23:55;3.37;;;1.70;;
9823;SDS011;4951;50.778;7.196;2023-03-23T08:27:00;2.13;;;1.60;;
9823;SDS011;4951;50.778;7.196;2023-03-23T08:30:19;4.83;;;1.70;;
9823;SDS011;4951;50.778;7.196;2023-03-23T08:33:16;4.30;;;1.70;;
9823;SDS011;4951;50.778;7.196;2023-03-23T08:36:22;2.90;;;1.60;;
9823;SDS011;4951;50.778;7.196;2023-03-23T08:39:17;2.67;;;1.50;;
9823;SDS011;4951;50.778;7.196;2023-03-23T08:42:06;1.77;;;1.20;;
9823;SDS011;4951;50.778;7.196;2023-03-23T08:44:53;5.30;;;1.60;;
9823;SDS011;4951;50.778;7.196;2023-03-23T08:47:57;2.13;;;1.57;;
9823;SDS011;4951;50.778;7.196;2023-03-23T08:50:40;2.73;;;1.50;;
9823;SDS011;4951;50.778;7.196;2023-03-23T08:53:41;3.23;;;1.60;;
9823;SDS011;4951;50.778;7.196;2023-03-23T08:56:47;2.90;;;1.73;;
9823;SDS011;4951;50.778;7.196;2023-03-23T08:59:57;5.53;;;1.90;;
9823;SDS011;4951;50.778;7.196;2023-03-23T09:02:59;3.10;;;1.50;;
9823;SDS011;4951;50.778;7.196;2023-03-23T09:05:52;3.77;;;1.70;;
9823;SDS011;4951;50.778;7.196;2023-03-23T09:08:25;4.67;;;1.67;;
9823;SDS011;4951;50.778;7.196;2023-03-23T09:11:02;2.50;;;1.60;;
9823;SDS011;4951;50.778;7.196;2023-03-23T09:13:38;2.00;;;1.20;;
9823;SDS011;4951;50.778;7.196;2023-03-23T09:16:34;1.87;;;1.50;;
9823;SDS011;4951;50.778;7.196;2023-03-23T09:29:57;3.43;;;1.40;;
9823;SDS011;4951;50.778;7.196;2023-03-23T09:33:07;4.53;;;2.00;;
9823;SDS011;4951;50.778;7.196;2023-03-23T09:35:36;2.97;;;1.73;;
9823;SDS011;4951;50.778;7.196;2023-03-23T09:38:19;2.33;;;1.70;;
9823;SDS011;4951;50.778;7.196;2023-03-23T09:41:12;2.73;;;1.43;;
9823;SDS011;4951;50.778;7.196;2023-03-23T09:55:14;4.77;;;1.67;;
9823;SDS011;4951;50.778;7.196;2023-03-23T10:04:57;2.80;;;1.40;;
9823;SDS011;4951;50.778;7.196;2023-03-23T10:07:47;1.47;;;1.33;;
9823;SDS011;4951;50.778;7.196;2023-03-23T10:10:54;2.50;;;1.57;;
9823;SDS011;4951;50.778;7.196;2023-03-23T10:14:07;1.30;;;1.10;;
9823;SDS011;4951;50.778;7.196;2023-03-23T10:17:03;1.50;;;1.10;;
9823;SDS011;4951;50.778;7.196;2023-03-23T10:20:15;1.67;;;1.13;;
9823;SDS011;4951;50.778;7.196;2023-03-23T10:23:24;1.60;;;1.30;;
9823;SDS011;4951;50.778;7.196;2023-03-23T10:43:52;2.33;;;1.30;;
9823;SDS011;4951;50.778;7.196;2023-03-23T10:50:37;1.17;;;1.07;;
9823;SDS011;4951;50.778;7.196;2023-03-23T10:54:24;1.50;;;1.00;;
9823;SDS011;4951;50.778;7.196;2023-03-23T11:07:56;1.90;;;1.10;;
9823;SDS011;4951;50.778;7.196;2023-03-23T11:17:29;2.50;;;1.13;;
9823;SDS011;4951;50.778;7.196;2023-03-23T11:20:59;2.30;;;1.20;;
9823;SDS011;4951;50.778;7.196;2023-03-23T11:27:17;1.87;;;1.20;;
9823;SDS011;4951;50.778;7.196;2023-03-23T11:30:36;0.93;;;0.90;;
9823;SDS011;4951;50.778;7.196;2023-03-23T11:33:09;1.73;;;1.20;;
9823;SDS011;4951;50.778;7.196;2023-03-23T11:35:58;1.20;;;0.97;;
9823;SDS011;4951;50.778;7.196;2023-03-23T11:38:29;1.20;;;1.10;;
9823;SDS011;4951;50.778;7.196;2023-03-23T11:41:18;1.43;;;1.10;;
9823;SDS011;4951;50.778;7.196;2023-03-23T11:44:03;0.80;;;0.80;;
9823;SDS011;4951;50.778;7.196;2023-03-23T11:47:08;1.10;;;1.00;;
9823;SDS011;4951;50.778;7.196;2023-03-23T11:49:47;1.33;;;1.07;;
9823;SDS011;4951;50.778;7.196;2023-03-23T11:52:32;1.10;;;1.00;;
9823;SDS011;4951;50.778;7.196;2023-03-23T11:55:17;1.93;;;1.30;;
9823;SDS011;4951;50.778;7.196;2023-03-23T11:58:40;2.30;;;1.40;;
9823;SDS011;4951;50.778;7.196;2023-03-23T12:01:36;2.17;;;1.23;;
9823;SDS011;4951;50.778;7.196;2023-03-23T12:08:26;1.40;;;1.20;;
9823;SDS011;4951;50.778;7.196;2023-03-23T12:11:31;2.47;;;1.50;;
9823;SDS011;4951;50.778;7.196;2023-03-23T12:14:20;2.70;;;1.33;;
9823;SDS011;4951;50.778;7.196;2023-03-23T12:16:58;1.70;;;1.30;;
9823;SDS011;4951;50.778;7.196;2023-03-23T12:20:44;2.93;;;1.53;;
9823;SDS011;4951;50.778;7.196;2023-03-23T12:23:58;2.53;;;1.27;;
9823;SDS011;4951;50.778;7.196;2023-03-23T12:27:28;3.57;;;1.10;;
9823;SDS011;4951;50.778;7.196;2023-03-23T12:30:55;1.80;;;1.33;;
9823;SDS011;4951;50.778;7.196;2023-03-23T12:34:52;2.23;;;1.30;;
9823;SDS011;4951;50.778;7.196;2023-03-23T12:53:09;2.33;;;1.37;;
9823;SDS011;4951;50.778;7.196;2023-03-23T12:56:42;1.30;;;1.20;;
9823;SDS011;4951;50.778;7.196;2023-03-23T12:59:30;4.17;;;1.40;;
9823;SDS011;4951;50.778;7.196;2023-03-23T13:02:28;1.37;;;1.17;;
9823;SDS011;4951;50.778;7.196;2023-03-23T13:05:13;3.60;;;1.60;;
9823;SDS011;4951;50.778;7.196;2023-03-23T13:29:28;2.70;;;1.60;;
9823;SDS011;4951;50.778;7.196;2023-03-23T13:32:04;2.90;;;1.60;;
9823;SDS011;4951;50.778;7.196;2023-03-23T13:35:56;2.70;;;1.50;;
9823;SDS011;4951;50.778;7.196;2023-03-23T13:39:48;2.53;;;1.67;;
9823;SDS011;4951;50.778;7.196;2023-03-23T13:42:55;2.60;;;1.70;;
9823;SDS011;4951;50.778;7.196;2023-03-23T13:45:46;2.47;;;1.40;;
9823;SDS011;4951;50.778;7.196;2023-03-23T13:48:44;3.77;;;1.67;;
9823;SDS011;4951;50.778;7.196;2023-03-23T13:52:24;2.47;;;1.40;;
9823;SDS011;4951;50.778;7.196;2023-03-23T14:03:19;2.97;;;1.73;;
9823;SDS011;4951;50.778;7.196;2023-03-23T14:06:15;2.57;;;1.63;;
9823;SDS011;4951;50.778;7.196;2023-03-23T14:09:15;6.50;;;1.97;;
9823;SDS011;4951;50.778;7.196;2023-03-23T14:27:35;2.63;;;1.70;;
9823;SDS011;4951;50.778;7.196;2023-03-23T14:30:14;3.90;;;1.53;;
9823;SDS011;4951;50.778;7.196;2023-03-23T14:33:04;3.33;;;2.00;;
9823;SDS011;4951;50.778;7.196;2023-03-23T14:39:29;3.93;;;1.60;;
9823;SDS011;4951;50.778;7.196;2023-03-23T14:43:39;4.17;;;1.47;;
9823;SDS011;4951;50.778;7.196;2023-03-23T14:51:02;4.47;;;1.77;;
9823;SDS011;4951;50.778;7.196;2023-03-23T14:54:39;2.57;;;1.50;;
9823;SDS011;4951;50.778;7.196;2023-03-23T14:59:09;2.83;;;1.60;;
9823;SDS011;4951;50.778;7.196;2023-03-23T15:05:22;2.50;;;1.60;;
9823;SDS011;4951;50.778;7.196;2023-03-23T15:16:27;2.87;;;1.67;;
9823;SDS011;4951;50.778;7.196;2023-03-23T15:19:28;4.50;;;1.80;;
9823;SDS011;4951;50.778;7.196;2023-03-23T15:22:23;3.50;;;1.50;;
9823;SDS011;4951;50.778;7.196;2023-03-23T15:25:08;3.00;;;1.70;;
9823;SDS011;4951;50.778;7.196;2023-03-23T15:27:45;3.20;;;1.73;;
9823;SDS011;4951;50.778;7.196;2023-03-23T15:30:35;3.57;;;1.53;;
9823;SDS011;4951;50.778;7.196;2023-03-23T15:33:54;2.30;;;1.60;;
9823;SDS011;4951;50.778;7.196;2023-03-23T15:36:30;1.93;;;1.60;;
9823;SDS011;4951;50.778;7.196;2023-03-23T15:39:23;1.97;;;1.53;;
9823;SDS011;4951;50.778;7.196;2023-03-23T15:42:04;3.27;;;1.70;;
9823;SDS011;4951;50.778;7.196;2023-03-23T15:45:24;3.90;;;1.90;;
9823;SDS011;4951;50.778;7.196;2023-03-23T15:48:47;3.47;;;1.60;;
9823;SDS011;4951;50.778;7.196;2023-03-23T15:51:46;2.57;;;1.67;;
9823;SDS011;4951;50.778;7.196;2023-03-23T15:54:17;3.80;;;1.70;;
9823;SDS011;4951;50.778;7.196;2023-03-23T15:57:34;6.43;;;2.37;;
9823;SDS011;4951;50.778;7.196;2023-03-23T16:00:35;3.07;;;1.60;;
9823;SDS011;4951;50.778;7.196;2023-03-23T16:03:05;3.37;;;1.60;;
9823;SDS011;4951;50.778;7.196;2023-03-23T16:05:44;4.60;;;2.00;;
9823;SDS011;4951;50.778;7.196;2023-03-23T16:08:19;2.80;;;1.50;;
9823;SDS011;4951;50.778;7.196;2023-03-23T16:10:47;5.13;;;2.00;;
9823;SDS011;4951;50.778;7.196;2023-03-23T16:13:18;3.13;;;1.73;;
9823;SDS011;4951;50.778;7.196;2023-03-23T16:15:52;3.00;;;1.67;;
9823;SDS011;4951;50.778;7.196;2023-03-23T16:18:45;3.63;;;2.00;;
9823;SDS011;4951;50.778;7.196;2023-03-23T16:21:15;4.40;;;2.00;;
9823;SDS011;4951;50.778;7.196;2023-03-23T16:27:10;2.83;;;1.80;;
9823;SDS011;4951;50.778;7.196;2023-03-23T16:30:33;3.77;;;2.07;;
9823;SDS011;4951;50.778;7.196;2023-03-23T16:33:30;2.73;;;1.63;;
9823;SDS011;4951;50.778;7.196;2023-03-23T16:35:59;4.77;;;2.00;;
9823;SDS011;4951;50.778;7.196;2023-03-23T16:38:29;7.10;;;1.97;;
9823;SDS011;4951;50.778;7.196;2023-03-23T16:41:32;2.90;;;1.83;;
9823;SDS011;4951;50.778;7.196;2023-03-23T16:47:44;3.37;;;1.90;;
9823;SDS011;4951;50.778;7.196;2023-03-23T16:50:46;5.13;;;2.20;;
9823;SDS011;4951;50.778;7.196;2023-03-23T16:53:43;3.37;;;1.90;;
9823;SDS011;4951;50.778;7.196;2023-03-23T16:56:39;4.20;;;1.97;;
9823;SDS011;4951;50.778;7.196;2023-03-23T16:59:26;3.67;;;2.10;;
9823;SDS011;4951;50.778;7.196;2023-03-23T17:01:57;4.70;;;2.13;;
9823;SDS011;4951;50.778;7.196;2023-03-23T17:04:41;4.73;;;2.20;;
9823;SDS011;4951;50.778;7.196;2023-03-23T17:07:41;5.63;;;2.30;;
9823;SDS011;4951;50.778;7.196;2023-03-23T17:10:14;4.17;;;2.50;;
9823;SDS011;4951;50.778;7.196;2023-03-23T17:12:51;5.93;;;2.07;;
9823;SDS011;4951;50.778;7.196;2023-03-23T17:15:37;5.17;;;2.17;;
9823;SDS011;4951;50.778;7.196;2023-03-23T17:31:49;2.43;;;1.90;;
9823;SDS011;4951;50.778;7.196;2023-03-23T17:34:34;4.97;;;2.53;;
9823;SDS011;4951;50.778;7.196;2023-03-23T17:37:12;3.47;;;2.10;;
9823;SDS011;4951;50.778;7.196;2023-03-23T17:42:45;3.27;;;2.03;;
9823;SDS011;4951;50.778;7.196;2023-03-23T17:46:09;4.70;;;2.03;;
9823;SDS011;4951;50.778;7.196;2023-03-23T17:52:32;4.00;;;2.30;;
9823;SDS011;4951;50.778;7.196;2023-03-23T17:55:15;3.97;;;2.10;;
9823;SDS011;4951;50.778;7.196;2023-03-23T17:57:54;6.03;;;2.50;;
9823;SDS011;4951;50.778;7.196;2023-03-23T18:14:54;4.13;;;1.97;;
9823;SDS011;4951;50.778;7.196;2023-03-23T18:18:11;4.83;;;2.20;;
9823;SDS011;4951;50.778;7.196;2023-03-23T18:20:51;3.47;;;2.10;;
9823;SDS011;4951;50.778;7.196;2023-03-23T18:23:30;3.70;;;2.30;;
9823;SDS011;4951;50.778;7.196;2023-03-23T18:26:29;5.97;;;2.70;;
9823;SDS011;4951;50.778;7.196;2023-03-23T18:29:33;3.60;;;2.40;;
9823;SDS011;4951;50.778;7.196;2023-03-23T18:32:34;5.13;;;2.33;;
9823;SDS011;4951;50.778;7.196;2023-03-23T18:35:17;6.27;;;2.40;;
9823;SDS011;4951;50.778;7.196;2023-03-23T18:38:18;3.67;;;2.20;;
9823;SDS011;4951;50.778;7.196;2023-03-23T18:41:10;5.13;;;2.40;;
9823;SDS011;4951;50.778;7.196;2023-03-23T18:43:58;5.93;;;2.13;;
9823;SDS011;4951;50.778;7.196;2023-03-23T18:46:34;5.27;;;2.30;;
9823;SDS011;4951;50.778;7.196;2023-03-23T18:49:20;6.23;;;2.10;;
9823;SDS011;4951;50.778;7.196;2023-03-23T18:55:18;4.40;;;2.20;;
9823;SDS011;4951;50.778;7.196;2023-03-23T18:58:07;5.10;;;2.70;;
9823;SDS011;4951;50.778;7.196;2023-03-23T19:00:56;4.07;;;2.17;;
9823;SDS011;4951;50.778;7.196;2023-03-23T19:03:37;5.17;;;2.20;;
9823;SDS011;4951;50.778;7.196;2023-03-23T19:06:06;3.70;;;2.13;;
9823;SDS011;4951;50.778;7.196;2023-03-23T19:08:43;2.93;;;1.97;;
9823;SDS011;4951;50.778;7.196;2023-03-23T19:11:13;5.27;;;2.30;;
9823;SDS011;4951;50.778;7.196;2023-03-23T19:13:57;4.47;;;2.37;;
9823;SDS011;4951;50.778;7.196;2023-03-23T19:16:33;4.13;;;2.37;;
9823;SDS011;4951;50.778;7.196;2023-03-23T19:19:09;5.50;;;2.30;;
9823;SDS011;4951;50.778;7.196;2023-03-23T19:21:37;5.27;;;2.53;;
9823;SDS011;4951;50.778;7.196;2023-03-23T19:24:13;7.37;;;2.53;;
9823;SDS011;4951;50.778;7.196;2023-03-23T19:26:45;4.37;;;2.30;;
9823;SDS011;4951;50.778;7.196;2023-03-23T19:29:29;5.93;;;2.50;;
9823;SDS011;4951;50.778;7.196;2023-03-23T19:32:01;4.80;;;2.20;;
9823;SDS011;4951;50.778;7.196;2023-03-23T19:34:37;5.77;;;2.47;;
9823;SDS011;4951;50.778;7.196;2023-03-23T19:37:05;5.97;;;2.20;;
9823;SDS011;4951;50.778;7.196;2023-03-23T19:39:53;3.70;;;2.20;;
9823;SDS011;4951;50.778;7.196;2023-03-23T19:42:34;3.33;;;1.83;;
9823;SDS011;4951;50.778;7.196;2023-03-23T19:45:25;5.27;;;2.20;;
9823;SDS011;4951;50.778;7.196;2023-03-23T19:48:04;4.50;;;2.30;;
9823;SDS011;4951;50.778;7.196;2023-03-23T19:50:45;3.53;;;2.30;;
9823;SDS011;4951;50.778;7.196;2023-03-23T19:53:44;4.63;;;2.20;;
9823;SDS011;4951;50.778;7.196;2023-03-23T19:56:23;3.47;;;1.90;;
9823;SDS011;4951;50.778;7.196;2023-03-23T19:58:53;4.50;;;2.37;;
9823;SDS011;4951;50.778;7.196;2023-03-23T20:01:22;3.23;;;2.13;;
9823;SDS011;4951;50.778;7.196;2023-03-23T20:03:49;4.37;;;2.23;;
9823;SDS011;4951;50.778;7.196;2023-03-23T20:06:21;4.37;;;2.30;;
9823;SDS011;4951;50.778;7.196;2023-03-23T20:09:02;4.80;;;2.33;;
9823;SDS011;4951;50.778;7.196;2023-03-23T20:11:33;4.87;;;2.20;;
9823;SDS011;4951;50.778;7.196;2023-03-23T20:14:34;4.03;;;2.00;;
9823;SDS011;4951;50.778;7.196;2023-03-23T20:17:27;3.60;;;2.40;;
9823;SDS011;4951;50.778;7.196;2023-03-23T20:20:00;3.93;;;1.93;;
9823;SDS011;4951;50.778;7.196;2023-03-23T20:22:33;5.57;;;2.20;;
9823;SDS011;4951;50.778;7.196;2023-03-23T20:25:04;2.60;;;2.03;;
9823;SDS011;4951;50.778;7.196;2023-03-23T20:27:34;3.87;;;2.03;;
9823;SDS011;4951;50.778;7.196;2023-03-23T20:30:05;3.73;;;2.00;;
9823;SDS011;4951;50.778;7.196;2023-03-23T20:32:43;3.97;;;2.03;;
9823;SDS011;4951;50.778;7.196;2023-03-23T20:35:12;4.57;;;2.13;;
9823;SDS011;4951;50.778;7.196;2023-03-23T20:38:06;3.67;;;2.00;;
9823;SDS011;4951;50.778;7.196;2023-03-23T20:40:34;3.97;;;2.17;;
9823;SDS011;4951;50.778;7.196;2023-03-23T20:43:03;4.80;;;2.30;;
9823;SDS011;4951;50.778;7.196;2023-03-23T20:45:35;2.20;;;1.90;;
9823;SDS011;4951;50.778;7.196;2023-03-23T20:48:17;2.87;;;2.03;;
9823;SDS011;4951;50.778;7.196;2023-03-23T20:51:43;3.00;;;1.70;;
9823;SDS011;4951;50.778;7.196;2023-03-23T20:54:19;4.70;;;2.10;;